sensor_id;sensor_type;location;lat;lon;timestamp;temperature;humidity
66722;SHT31;53633;49.932;10.884;2023-04-03T00:00:36;1.97;84.14
66722;SHT31;53633;49.932;10.884;2023-04-03T00:03:03;2.15;83.63
66722;SHT31;53633;49.932;10.884;2023-04-03T00:05:30;2.24;83.86
66722;SHT31;53633;49.932;10.884;2023-04-03T00:07:57;2.39;83.24
66722;SHT31;53633;49.932;10.884;2023-04-03T00:10:23;2.46;83.39
66722;SHT31;53633;49.932;10.884;2023-04-03T00:12:50;2.37;83.45
66722;SHT31;53633;49.932;10.884;2023-04-03T00:15:18;2.42;83.48
66722;SHT31;53633;49.932;10.884;2023-04-03T00:17:45;2.69;82.73
66722;SHT31;53633;49.932;10.884;2023-04-03T00:20:12;2.42;83.85
66722;SHT31;53633;49.932;10.884;2023-04-03T00:22:38;2.45;83.62
66722;SHT31;53633;49.932;10.884;2023-04-03T00:25:06;2.50;83.71
66722;SHT31;53633;49.932;10.884;2023-04-03T00:27:33;2.53;83.64
66722;SHT31;53633;49.932;10.884;2023-04-03T00:30:02;2.44;84.32
66722;SHT31;53633;49.932;10.884;2023-04-03T00:32:30;2.39;84.71
66722;SHT31;53633;49.932;10.884;2023-04-03T00:34:57;2.50;84.22
66722;SHT31;53633;49.932;10.884;2023-04-03T00:37:24;2.52;84.19
66722;SHT31;53633;49.932;10.884;2023-04-03T00:39:51;2.50;84.58
66722;SHT31;53633;49.932;10.884;2023-04-03T00:42:17;2.69;84.10
66722;SHT31;53633;49.932;10.884;2023-04-03T00:47:55;2.63;84.36
66722;SHT31;53633;49.932;10.884;2023-04-03T00:50:23;2.71;83.97
66722;SHT31;53633;49.932;10.884;2023-04-03T00:52:50;2.79;83.78
66722;SHT31;53633;49.932;10.884;2023-04-03T00:55:17;2.75;84.08
66722;SHT31;53633;49.932;10.884;2023-04-03T00:57:45;2.89;83.91
66722;SHT31;53633;49.932;10.884;2023-04-03T01:00:14;2.89;83.66
66722;SHT31;53633;49.932;10.884;2023-04-03T01:02:43;2.79;84.13
66722;SHT31;53633;49.932;10.884;2023-04-03T01:05:12;2.66;84.60
66722;SHT31;53633;49.932;10.884;2023-04-03T01:07:39;2.63;84.97
66722;SHT31;53633;49.932;10.884;2023-04-03T01:10:09;2.56;85.27
66722;SHT31;53633;49.932;10.884;2023-04-03T01:12:37;2.50;85.38
66722;SHT31;53633;49.932;10.884;2023-04-03T01:15:10;2.56;85.49
66722;SHT31;53633;49.932;10.884;2023-04-03T01:17:39;2.67;85.17
66722;SHT31;53633;49.932;10.884;2023-04-03T01:23:27;2.71;85.28
66722;SHT31;53633;49.932;10.884;2023-04-03T01:25:56;2.83;84.70
66722;SHT31;53633;49.932;10.884;2023-04-03T01:28:25;2.89;84.58
66722;SHT31;53633;49.932;10.884;2023-04-03T01:31:00;2.99;83.97
66722;SHT31;53633;49.932;10.884;2023-04-03T01:33:30;3.00;84.20
66722;SHT31;53633;49.932;10.884;2023-04-03T01:35:57;3.04;84.34
66722;SHT31;53633;49.932;10.884;2023-04-03T01:38:23;3.07;84.41
66722;SHT31;53633;49.932;10.884;2023-04-03T01:40:50;2.97;84.74
66722;SHT31;53633;49.932;10.884;2023-04-03T01:43:17;3.04;84.77
66722;SHT31;53633;49.932;10.884;2023-04-03T01:45:44;3.03;84.76
66722;SHT31;53633;49.932;10.884;2023-04-03T01:48:10;3.01;84.91
66722;SHT31;53633;49.932;10.884;2023-04-03T01:50:38;3.13;84.51
66722;SHT31;53633;49.932;10.884;2023-04-03T01:53:05;3.22;84.36
66722;SHT31;53633;49.932;10.884;2023-04-03T01:55:32;3.25;84.46
66722;SHT31;53633;49.932;10.884;2023-04-03T01:57:58;3.20;84.32
66722;SHT31;53633;49.932;10.884;2023-04-03T02:00:25;3.15;84.59
66722;SHT31;53633;49.932;10.884;2023-04-03T02:02:52;3.14;84.84
66722;SHT31;53633;49.932;10.884;2023-04-03T02:05:18;3.22;84.89
66722;SHT31;53633;49.932;10.884;2023-04-03T02:07:46;3.17;84.82
66722;SHT31;53633;49.932;10.884;2023-04-03T02:10:13;3.13;85.19
66722;SHT31;53633;49.932;10.884;2023-04-03T02:12:40;3.24;84.78
66722;SHT31;53633;49.932;10.884;2023-04-03T02:15:07;3.17;84.63
66722;SHT31;53633;49.932;10.884;2023-04-03T02:17:35;3.20;84.62
66722;SHT31;53633;49.932;10.884;2023-04-03T02:20:02;3.27;84.50
66722;SHT31;53633;49.932;10.884;2023-04-03T02:22:29;3.32;84.30
66722;SHT31;53633;49.932;10.884;2023-04-03T02:24:56;3.43;83.67
66722;SHT31;53633;49.932;10.884;2023-04-03T02:27:23;3.41;83.68
66722;SHT31;53633;49.932;10.884;2023-04-03T02:29:50;3.43;83.41
66722;SHT31;53633;49.932;10.884;2023-04-03T02:32:17;3.41;83.28
66722;SHT31;53633;49.932;10.884;2023-04-03T02:34:43;3.41;83.14
66722;SHT31;53633;49.932;10.884;2023-04-03T02:37:10;3.46;83.04
66722;SHT31;53633;49.932;10.884;2023-04-03T02:39:37;3.38;82.88
66722;SHT31;53633;49.932;10.884;2023-04-03T02:42:05;3.42;82.51
66722;SHT31;53633;49.932;10.884;2023-04-03T02:44:31;3.36;82.65
66722;SHT31;53633;49.932;10.884;2023-04-03T02:46:58;3.43;82.63
66722;SHT31;53633;49.932;10.884;2023-04-03T02:49:25;3.42;82.48
66722;SHT31;53633;49.932;10.884;2023-04-03T02:51:51;3.42;82.37
66722;SHT31;53633;49.932;10.884;2023-04-03T02:54:18;3.38;82.45
66722;SHT31;53633;49.932;10.884;2023-04-03T02:56:45;3.20;83.38
66722;SHT31;53633;49.932;10.884;2023-04-03T02:59:13;3.27;83.22
66722;SHT31;53633;49.932;10.884;2023-04-03T03:01:39;3.31;82.90
66722;SHT31;53633;49.932;10.884;2023-04-03T03:04:06;3.39;82.70
66722;SHT31;53633;49.932;10.884;2023-04-03T03:06:33;3.42;82.48
66722;SHT31;53633;49.932;10.884;2023-04-03T03:09:00;3.39;82.51
66722;SHT31;53633;49.932;10.884;2023-04-03T03:11:26;3.39;82.71
66722;SHT31;53633;49.932;10.884;2023-04-03T03:13:53;3.48;82.60
66722;SHT31;53633;49.932;10.884;2023-04-03T03:16:21;3.42;82.49
66722;SHT31;53633;49.932;10.884;2023-04-03T03:18:48;3.42;82.24
66722;SHT31;53633;49.932;10.884;2023-04-03T03:21:15;3.41;82.31
66722;SHT31;53633;49.932;10.884;2023-04-03T03:23:41;3.43;82.10
66722;SHT31;53633;49.932;10.884;2023-04-03T03:26:09;3.43;81.63
66722;SHT31;53633;49.932;10.884;2023-04-03T03:28:38;3.42;81.71
66722;SHT31;53633;49.932;10.884;2023-04-03T03:31:05;3.36;81.75
66722;SHT31;53633;49.932;10.884;2023-04-03T03:33:34;3.38;81.53
66722;SHT31;53633;49.932;10.884;2023-04-03T03:36:01;3.31;81.75
66722;SHT31;53633;49.932;10.884;2023-04-03T03:38:27;3.31;81.86
66722;SHT31;53633;49.932;10.884;2023-04-03T03:40:54;3.31;81.96
66722;SHT31;53633;49.932;10.884;2023-04-03T03:43:21;3.18;82.31
66722;SHT31;53633;49.932;10.884;2023-04-03T03:45:50;3.14;82.89
66722;SHT31;53633;49.932;10.884;2023-04-03T03:48:18;3.22;82.22
66722;SHT31;53633;49.932;10.884;2023-04-03T03:50:46;3.21;82.36
66722;SHT31;53633;49.932;10.884;2023-04-03T03:53:13;3.21;82.42
66722;SHT31;53633;49.932;10.884;2023-04-03T03:55:39;3.20;82.50
66722;SHT31;53633;49.932;10.884;2023-04-03T03:58:06;3.17;82.28
66722;SHT31;53633;49.932;10.884;2023-04-03T04:00:33;2.99;82.49
66722;SHT31;53633;49.932;10.884;2023-04-03T04:02:59;2.45;85.28
66722;SHT31;53633;49.932;10.884;2023-04-03T04:05:26;2.60;84.85
66722;SHT31;53633;49.932;10.884;2023-04-03T04:07:54;2.63;83.88
66722;SHT31;53633;49.932;10.884;2023-04-03T04:10:21;2.73;83.49
66722;SHT31;53633;49.932;10.884;2023-04-03T04:12:47;2.89;82.48
66722;SHT31;53633;49.932;10.884;2023-04-03T04:15:14;2.92;82.07
66722;SHT31;53633;49.932;10.884;2023-04-03T04:17:41;2.86;82.35
66722;SHT31;53633;49.932;10.884;2023-04-03T04:20:08;2.83;81.38
66722;SHT31;53633;49.932;10.884;2023-04-03T04:22:35;2.86;81.59
66722;SHT31;53633;49.932;10.884;2023-04-03T04:25:03;2.86;81.39
66722;SHT31;53633;49.932;10.884;2023-04-03T04:27:30;2.83;81.54
66722;SHT31;53633;49.932;10.884;2023-04-03T04:29:56;2.76;81.51
66722;SHT31;53633;49.932;10.884;2023-04-03T04:32:24;2.83;81.55
66722;SHT31;53633;49.932;10.884;2023-04-03T04:34:51;2.80;80.97
66722;SHT31;53633;49.932;10.884;2023-04-03T04:37:18;2.82;80.88
66722;SHT31;53633;49.932;10.884;2023-04-03T04:39:45;2.77;80.83
66722;SHT31;53633;49.932;10.884;2023-04-03T04:42:13;2.72;81.23
66722;SHT31;53633;49.932;10.884;2023-04-03T04:44:43;2.67;81.55
66722;SHT31;53633;49.932;10.884;2023-04-03T04:47:10;2.69;81.09
66722;SHT31;53633;49.932;10.884;2023-04-03T04:49:36;2.71;81.22
66722;SHT31;53633;49.932;10.884;2023-04-03T04:52:03;2.44;82.26
66722;SHT31;53633;49.932;10.884;2023-04-03T04:54:30;2.39;82.72
66722;SHT31;53633;49.932;10.884;2023-04-03T04:56:57;2.65;81.69
66722;SHT31;53633;49.932;10.884;2023-04-03T04:59:25;2.66;81.50
66722;SHT31;53633;49.932;10.884;2023-04-03T05:01:51;2.60;81.71
66722;SHT31;53633;49.932;10.884;2023-04-03T05:04:18;2.75;81.65
66722;SHT31;53633;49.932;10.884;2023-04-03T05:06:45;2.72;81.46
66722;SHT31;53633;49.932;10.884;2023-04-03T05:09:11;2.79;81.44
66722;SHT31;53633;49.932;10.884;2023-04-03T05:11:38;2.83;81.11
66722;SHT31;53633;49.932;10.884;2023-04-03T05:14:05;2.84;80.74
66722;SHT31;53633;49.932;10.884;2023-04-03T05:16:33;2.92;80.96
66722;SHT31;53633;49.932;10.884;2023-04-03T05:19:00;2.89;80.81
66722;SHT31;53633;49.932;10.884;2023-04-03T05:21:27;2.89;80.69
66722;SHT31;53633;49.932;10.884;2023-04-03T05:23:54;2.89;80.84
66722;SHT31;53633;49.932;10.884;2023-04-03T05:26:20;2.94;80.33
66722;SHT31;53633;49.932;10.884;2023-04-03T05:28:47;2.96;80.18
66722;SHT31;53633;49.932;10.884;2023-04-03T05:31:13;2.60;81.03
66722;SHT31;53633;49.932;10.884;2023-04-03T05:33:42;2.62;81.51
66722;SHT31;53633;49.932;10.884;2023-04-03T05:36:09;2.89;80.27
66722;SHT31;53633;49.932;10.884;2023-04-03T05:38:36;3.03;79.43
66722;SHT31;53633;49.932;10.884;2023-04-03T05:41:02;3.08;78.91
66722;SHT31;53633;49.932;10.884;2023-04-03T05:43:31;3.14;78.86
66722;SHT31;53633;49.932;10.884;2023-04-03T05:45:58;3.17;78.58
66722;SHT31;53633;49.932;10.884;2023-04-03T05:48:24;3.22;78.38
66722;SHT31;53633;49.932;10.884;2023-04-03T05:50:52;3.28;77.93
66722;SHT31;53633;49.932;10.884;2023-04-03T05:53:25;3.36;77.62
66722;SHT31;53633;49.932;10.884;2023-04-03T05:55:53;3.58;77.14
66722;SHT31;53633;49.932;10.884;2023-04-03T05:58:19;3.55;76.93
66722;SHT31;53633;49.932;10.884;2023-04-03T06:00:46;3.42;76.87
66722;SHT31;53633;49.932;10.884;2023-04-03T06:03:13;3.48;76.85
66722;SHT31;53633;49.932;10.884;2023-04-03T06:05:39;3.32;77.51
66722;SHT31;53633;49.932;10.884;2023-04-03T06:08:08;3.45;76.35
66722;SHT31;53633;49.932;10.884;2023-04-03T06:10:34;3.21;77.24
66722;SHT31;53633;49.932;10.884;2023-04-03T06:13:02;3.36;76.59
66722;SHT31;53633;49.932;10.884;2023-04-03T06:15:28;3.56;75.66
66722;SHT31;53633;49.932;10.884;2023-04-03T06:17:55;3.13;77.14
66722;SHT31;53633;49.932;10.884;2023-04-03T06:20:22;3.45;75.50
66722;SHT31;53633;49.932;10.884;2023-04-03T06:22:48;3.63;75.33
66722;SHT31;53633;49.932;10.884;2023-04-03T06:25:17;3.68;74.45
66722;SHT31;53633;49.932;10.884;2023-04-03T06:27:44;3.85;74.06
66722;SHT31;53633;49.932;10.884;2023-04-03T06:30:11;3.90;74.00
66722;SHT31;53633;49.932;10.884;2023-04-03T06:32:37;4.16;73.77
66722;SHT31;53633;49.932;10.884;2023-04-03T06:35:05;5.26;70.48
66722;SHT31;53633;49.932;10.884;2023-04-03T06:37:32;5.01;68.85
66722;SHT31;53633;49.932;10.884;2023-04-03T06:39:59;4.66;69.97
66722;SHT31;53633;49.932;10.884;2023-04-03T06:42:27;5.26;67.89
66722;SHT31;53633;49.932;10.884;2023-04-03T06:44:54;5.80;66.25
66722;SHT31;53633;49.932;10.884;2023-04-03T06:47:20;5.75;65.38
66722;SHT31;53633;49.932;10.884;2023-04-03T06:49:47;4.96;66.78
66722;SHT31;53633;49.932;10.884;2023-04-03T06:52:14;4.38;69.17
66722;SHT31;53633;49.932;10.884;2023-04-03T06:54:40;4.16;69.49
66722;SHT31;53633;49.932;10.884;2023-04-03T06:57:08;4.51;69.73
66722;SHT31;53633;49.932;10.884;2023-04-03T06:59:36;4.21;69.97
66722;SHT31;53633;49.932;10.884;2023-04-03T07:02:03;4.28;70.23
66722;SHT31;53633;49.932;10.884;2023-04-03T07:04:30;4.51;70.32
66722;SHT31;53633;49.932;10.884;2023-04-03T07:06:57;4.94;68.62
66722;SHT31;53633;49.932;10.884;2023-04-03T07:09:23;4.62;68.63
66722;SHT31;53633;49.932;10.884;2023-04-03T07:11:50;4.83;68.20
66722;SHT31;53633;49.932;10.884;2023-04-03T07:14:17;6.72;63.84
66722;SHT31;53633;49.932;10.884;2023-04-03T07:16:45;7.16;59.19
66722;SHT31;53633;49.932;10.884;2023-04-03T07:19:11;6.88;61.89
66722;SHT31;53633;49.932;10.884;2023-04-03T07:21:38;7.79;58.19
66722;SHT31;53633;49.932;10.884;2023-04-03T07:24:05;9.23;54.88
66722;SHT31;53633;49.932;10.884;2023-04-03T07:26:32;9.65;53.19
66722;SHT31;53633;49.932;10.884;2023-04-03T07:28:59;9.98;51.69
66722;SHT31;53633;49.932;10.884;2023-04-03T07:31:25;9.62;52.14
66722;SHT31;53633;49.932;10.884;2023-04-03T07:33:53;10.39;50.53
66722;SHT31;53633;49.932;10.884;2023-04-03T07:36:21;10.71;50.79
66722;SHT31;53633;49.932;10.884;2023-04-03T07:38:48;10.91;48.49
66722;SHT31;53633;49.932;10.884;2023-04-03T07:41:17;11.26;47.96
66722;SHT31;53633;49.932;10.884;2023-04-03T07:43:44;11.18;46.69
66722;SHT31;53633;49.932;10.884;2023-04-03T07:46:11;11.54;46.07
66722;SHT31;53633;49.932;10.884;2023-04-03T07:48:38;11.15;47.77
66722;SHT31;53633;49.932;10.884;2023-04-03T07:51:06;10.21;48.03
66722;SHT31;53633;49.932;10.884;2023-04-03T07:53:33;9.81;48.95
66722;SHT31;53633;49.932;10.884;2023-04-03T07:56:00;9.82;49.46
66722;SHT31;53633;49.932;10.884;2023-04-03T07:58:27;10.05;48.69
66722;SHT31;53633;49.932;10.884;2023-04-03T08:00:53;10.54;47.55
66722;SHT31;53633;49.932;10.884;2023-04-03T08:03:20;11.32;47.26
66722;SHT31;53633;49.932;10.884;2023-04-03T08:05:48;12.54;45.16
66722;SHT31;53633;49.932;10.884;2023-04-03T08:08:19;12.09;44.62
66722;SHT31;53633;49.932;10.884;2023-04-03T08:10:48;11.20;46.70
66722;SHT31;53633;49.932;10.884;2023-04-03T08:13:15;11.73;45.94
66722;SHT31;53633;49.932;10.884;2023-04-03T08:15:42;12.63;43.70
66722;SHT31;53633;49.932;10.884;2023-04-03T08:18:09;10.09;48.81
66722;SHT31;53633;49.932;10.884;2023-04-03T08:20:35;8.78;51.49
66722;SHT31;53633;49.932;10.884;2023-04-03T08:23:03;9.79;50.19
66722;SHT31;53633;49.932;10.884;2023-04-03T08:25:32;9.34;48.98
66722;SHT31;53633;49.932;10.884;2023-04-03T08:27:58;9.05;50.90
66722;SHT31;53633;49.932;10.884;2023-04-03T08:30:25;10.05;47.78
66722;SHT31;53633;49.932;10.884;2023-04-03T08:32:52;9.62;50.26
66722;SHT31;53633;49.932;10.884;2023-04-03T08:35:19;10.28;49.30
66722;SHT31;53633;49.932;10.884;2023-04-03T08:37:45;8.68;52.18
66722;SHT31;53633;49.932;10.884;2023-04-03T08:40:15;8.16;52.78
66722;SHT31;53633;49.932;10.884;2023-04-03T08:42:51;7.54;53.05
66722;SHT31;53633;49.932;10.884;2023-04-03T08:45:26;6.95;54.44
66722;SHT31;53633;49.932;10.884;2023-04-03T08:47:58;7.34;54.35
66722;SHT31;53633;49.932;10.884;2023-04-03T08:50:30;8.22;52.37
66722;SHT31;53633;49.932;10.884;2023-04-03T08:52:58;8.04;52.10
66722;SHT31;53633;49.932;10.884;2023-04-03T08:55:27;8.89;51.20
66722;SHT31;53633;49.932;10.884;2023-04-03T08:57:59;9.30;50.04
66722;SHT31;53633;49.932;10.884;2023-04-03T09:00:30;9.27;46.69
66722;SHT31;53633;49.932;10.884;2023-04-03T09:02:57;9.48;46.85
66722;SHT31;53633;49.932;10.884;2023-04-03T09:05:32;8.34;47.65
66722;SHT31;53633;49.932;10.884;2023-04-03T09:08:04;8.55;48.90
66722;SHT31;53633;49.932;10.884;2023-04-03T09:10:33;9.30;47.71
66722;SHT31;53633;49.932;10.884;2023-04-03T09:13:06;9.27;50.53
66722;SHT31;53633;49.932;10.884;2023-04-03T09:15:34;10.19;47.71
66722;SHT31;53633;49.932;10.884;2023-04-03T09:18:12;9.61;47.61
66722;SHT31;53633;49.932;10.884;2023-04-03T09:20:45;10.36;46.11
66722;SHT31;53633;49.932;10.884;2023-04-03T09:23:18;10.09;47.55
66722;SHT31;53633;49.932;10.884;2023-04-03T09:25:46;10.06;46.94
66722;SHT31;53633;49.932;10.884;2023-04-03T09:28:14;10.10;43.96
66722;SHT31;53633;49.932;10.884;2023-04-03T09:30:41;11.01;44.42
66722;SHT31;53633;49.932;10.884;2023-04-03T09:33:08;10.86;43.98
66722;SHT31;53633;49.932;10.884;2023-04-03T09:35:36;9.61;45.80
66722;SHT31;53633;49.932;10.884;2023-04-03T09:38:17;10.06;46.29
66722;SHT31;53633;49.932;10.884;2023-04-03T09:40:45;9.48;45.57
66722;SHT31;53633;49.932;10.884;2023-04-03T09:43:28;9.34;47.07
66722;SHT31;53633;49.932;10.884;2023-04-03T09:45:56;9.57;45.49
66722;SHT31;53633;49.932;10.884;2023-04-03T09:48:24;9.30;46.09
66722;SHT31;53633;49.932;10.884;2023-04-03T09:50:58;8.79;46.83
66722;SHT31;53633;49.932;10.884;2023-04-03T09:53:28;8.10;48.64
66722;SHT31;53633;49.932;10.884;2023-04-03T09:55:55;8.40;47.07
66722;SHT31;53633;49.932;10.884;2023-04-03T09:58:26;8.42;46.80
66722;SHT31;53633;49.932;10.884;2023-04-03T10:01:02;7.81;49.57
66722;SHT31;53633;49.932;10.884;2023-04-03T10:03:31;8.31;48.86
66722;SHT31;53633;49.932;10.884;2023-04-03T10:06:00;8.64;48.76
66722;SHT31;53633;49.932;10.884;2023-04-03T10:08:29;9.20;47.34
66722;SHT31;53633;49.932;10.884;2023-04-03T10:11:11;9.02;48.32
66722;SHT31;53633;49.932;10.884;2023-04-03T10:13:54;7.81;49.55
66722;SHT31;53633;49.932;10.884;2023-04-03T10:16:25;7.48;49.29
66722;SHT31;53633;49.932;10.884;2023-04-03T10:19:02;7.10;49.11
66722;SHT31;53633;49.932;10.884;2023-04-03T10:21:37;7.23;49.18
66722;SHT31;53633;49.932;10.884;2023-04-03T10:24:10;7.21;51.00
66722;SHT31;53633;49.932;10.884;2023-04-03T10:26:45;7.48;49.86
66722;SHT31;53633;49.932;10.884;2023-04-03T10:29:23;7.47;49.29
66722;SHT31;53633;49.932;10.884;2023-04-03T10:31:59;7.37;49.88
66722;SHT31;53633;49.932;10.884;2023-04-03T10:34:30;7.35;48.31
66722;SHT31;53633;49.932;10.884;2023-04-03T10:37:05;7.40;49.67
66722;SHT31;53633;49.932;10.884;2023-04-03T10:39:39;7.16;48.67
66722;SHT31;53633;49.932;10.884;2023-04-03T10:42:14;7.41;50.26
66722;SHT31;53633;49.932;10.884;2023-04-03T10:44:55;7.35;49.71
66722;SHT31;53633;49.932;10.884;2023-04-03T10:47:31;6.65;50.10
66722;SHT31;53633;49.932;10.884;2023-04-03T10:50:12;6.62;49.91
66722;SHT31;53633;49.932;10.884;2023-04-03T10:52:49;6.69;51.11
66722;SHT31;53633;49.932;10.884;2023-04-03T10:55:27;6.65;50.10
66722;SHT31;53633;49.932;10.884;2023-04-03T10:57:58;6.31;48.59
66722;SHT31;53633;49.932;10.884;2023-04-03T11:00:31;6.37;50.05
66722;SHT31;53633;49.932;10.884;2023-04-03T11:03:03;6.03;49.51
66722;SHT31;53633;49.932;10.884;2023-04-03T11:05:35;6.24;48.96
66722;SHT31;53633;49.932;10.884;2023-04-03T11:08:08;6.40;50.47
66722;SHT31;53633;49.932;10.884;2023-04-03T11:10:41;6.48;48.81
66722;SHT31;53633;49.932;10.884;2023-04-03T11:13:12;6.45;50.12
66722;SHT31;53633;49.932;10.884;2023-04-03T11:15:41;6.49;50.27
66722;SHT31;53633;49.932;10.884;2023-04-03T11:18:12;6.59;50.73
66722;SHT31;53633;49.932;10.884;2023-04-03T11:20:42;6.30;48.39
66722;SHT31;53633;49.932;10.884;2023-04-03T11:23:17;6.33;52.80
66722;SHT31;53633;49.932;10.884;2023-04-03T11:25:46;6.16;50.98
66722;SHT31;53633;49.932;10.884;2023-04-03T11:28:15;6.20;49.56
66722;SHT31;53633;49.932;10.884;2023-04-03T11:30:48;6.27;50.69
66722;SHT31;53633;49.932;10.884;2023-04-03T11:33:31;5.90;48.42
66722;SHT31;53633;49.932;10.884;2023-04-03T11:36:03;6.06;50.67
66722;SHT31;53633;49.932;10.884;2023-04-03T11:38:52;6.16;50.52
66722;SHT31;53633;49.932;10.884;2023-04-03T11:41:26;6.11;48.85
66722;SHT31;53633;49.932;10.884;2023-04-03T11:43:59;6.17;51.28
66722;SHT31;53633;49.932;10.884;2023-04-03T11:46:53;6.06;52.10
66722;SHT31;53633;49.932;10.884;2023-04-03T11:49:58;6.23;50.37
66722;SHT31;53633;49.932;10.884;2023-04-03T11:52:57;6.42;51.05
66722;SHT31;53633;49.932;10.884;2023-04-03T11:55:53;6.54;49.85
66722;SHT31;53633;49.932;10.884;2023-04-03T11:58:21;6.30;49.17
66722;SHT31;53633;49.932;10.884;2023-04-03T12:00:50;6.28;49.11
66722;SHT31;53633;49.932;10.884;2023-04-03T12:06:49;6.14;49.74
66722;SHT31;53633;49.932;10.884;2023-04-03T12:09:24;6.33;50.67
66722;SHT31;53633;49.932;10.884;2023-04-03T12:11:51;6.30;47.88
66722;SHT31;53633;49.932;10.884;2023-04-03T12:14:22;6.49;50.63
66722;SHT31;53633;49.932;10.884;2023-04-03T12:16:49;6.40;48.98
66722;SHT31;53633;49.932;10.884;2023-04-03T12:19:36;6.61;51.35
66722;SHT31;53633;49.932;10.884;2023-04-03T12:22:13;6.54;47.53
66722;SHT31;53633;49.932;10.884;2023-04-03T12:24:41;6.52;47.38
66722;SHT31;53633;49.932;10.884;2023-04-03T12:27:30;6.38;45.80
66722;SHT31;53633;49.932;10.884;2023-04-03T12:30:21;6.46;47.75
66722;SHT31;53633;49.932;10.884;2023-04-03T12:33:12;6.64;48.01
66722;SHT31;53633;49.932;10.884;2023-04-03T12:35:47;6.24;44.56
66722;SHT31;53633;49.932;10.884;2023-04-03T12:38:42;6.33;45.57
66722;SHT31;53633;49.932;10.884;2023-04-03T12:41:19;6.27;47.63
66722;SHT31;53633;49.932;10.884;2023-04-03T12:44:11;6.30;48.45
66722;SHT31;53633;49.932;10.884;2023-04-03T12:46:43;6.58;49.24
66722;SHT31;53633;49.932;10.884;2023-04-03T12:49:26;6.51;48.86
66722;SHT31;53633;49.932;10.884;2023-04-03T12:51:58;6.30;49.64
66722;SHT31;53633;49.932;10.884;2023-04-03T12:54:29;6.49;48.77
66722;SHT31;53633;49.932;10.884;2023-04-03T12:57:09;6.55;46.75
66722;SHT31;53633;49.932;10.884;2023-04-03T12:59:36;6.58;46.86
66722;SHT31;53633;49.932;10.884;2023-04-03T13:02:15;6.67;46.68
66722;SHT31;53633;49.932;10.884;2023-04-03T13:04:46;6.76;49.32
66722;SHT31;53633;49.932;10.884;2023-04-03T13:07:21;6.85;47.42
66722;SHT31;53633;49.932;10.884;2023-04-03T13:09:56;6.89;49.33
66722;SHT31;53633;49.932;10.884;2023-04-03T13:12:23;6.58;48.27
66722;SHT31;53633;49.932;10.884;2023-04-03T13:14:53;6.55;48.79
66722;SHT31;53633;49.932;10.884;2023-04-03T13:17:21;6.73;48.61
66722;SHT31;53633;49.932;10.884;2023-04-03T13:19:48;6.82;49.91
66722;SHT31;53633;49.932;10.884;2023-04-03T13:22:25;6.69;47.24
66722;SHT31;53633;49.932;10.884;2023-04-03T13:24:55;6.62;47.73
66722;SHT31;53633;49.932;10.884;2023-04-03T13:27:23;6.59;46.13
66722;SHT31;53633;49.932;10.884;2023-04-03T13:29:51;6.65;46.41
66722;SHT31;53633;49.932;10.884;2023-04-03T13:32:20;6.73;46.84
66722;SHT31;53633;49.932;10.884;2023-04-03T13:34:48;6.71;47.49
66722;SHT31;53633;49.932;10.884;2023-04-03T13:37:22;6.67;46.29
66722;SHT31;53633;49.932;10.884;2023-04-03T13:39:58;6.58;45.55
66722;SHT31;53633;49.932;10.884;2023-04-03T13:42:27;6.83;49.13
66722;SHT31;53633;49.932;10.884;2023-04-03T13:45:11;6.92;47.26
66722;SHT31;53633;49.932;10.884;2023-04-03T13:47:43;6.52;45.61
66722;SHT31;53633;49.932;10.884;2023-04-03T13:50:17;6.51;47.59
66722;SHT31;53633;49.932;10.884;2023-04-03T13:52:48;6.37;47.16
66722;SHT31;53633;49.932;10.884;2023-04-03T13:55:19;6.55;49.40
66722;SHT31;53633;49.932;10.884;2023-04-03T13:58:21;6.51;48.09
66722;SHT31;53633;49.932;10.884;2023-04-03T14:00:50;6.82;48.11
66722;SHT31;53633;49.932;10.884;2023-04-03T14:03:19;6.92;47.86
66722;SHT31;53633;49.932;10.884;2023-04-03T14:05:47;6.96;46.59
66722;SHT31;53633;49.932;10.884;2023-04-03T14:08:15;6.65;46.53
66722;SHT31;53633;49.932;10.884;2023-04-03T14:10:42;6.78;47.85
66722;SHT31;53633;49.932;10.884;2023-04-03T14:13:11;6.64;45.74
66722;SHT31;53633;49.932;10.884;2023-04-03T14:15:38;6.78;47.69
66722;SHT31;53633;49.932;10.884;2023-04-03T14:18:05;6.92;47.62
66722;SHT31;53633;49.932;10.884;2023-04-03T14:20:33;6.83;46.44
66722;SHT31;53633;49.932;10.884;2023-04-03T14:23:00;6.89;46.85
66722;SHT31;53633;49.932;10.884;2023-04-03T14:25:28;6.92;46.91
66722;SHT31;53633;49.932;10.884;2023-04-03T14:27:54;6.96;47.07
66722;SHT31;53633;49.932;10.884;2023-04-03T14:30:23;6.90;46.58
66722;SHT31;53633;49.932;10.884;2023-04-03T14:32:50;6.78;46.71
66722;SHT31;53633;49.932;10.884;2023-04-03T14:35:18;6.93;46.15
66722;SHT31;53633;49.932;10.884;2023-04-03T14:37:46;7.04;47.10
66722;SHT31;53633;49.932;10.884;2023-04-03T14:40:16;7.04;46.32
66722;SHT31;53633;49.932;10.884;2023-04-03T14:42:44;6.81;45.55
66722;SHT31;53633;49.932;10.884;2023-04-03T14:45:12;6.65;46.70
66722;SHT31;53633;49.932;10.884;2023-04-03T14:47:43;6.48;46.21
66722;SHT31;53633;49.932;10.884;2023-04-03T14:50:15;6.54;45.00
66722;SHT31;53633;49.932;10.884;2023-04-03T14:52:43;6.55;45.20
66722;SHT31;53633;49.932;10.884;2023-04-03T14:55:12;6.69;46.44
66722;SHT31;53633;49.932;10.884;2023-04-03T14:57:40;6.67;45.55
66722;SHT31;53633;49.932;10.884;2023-04-03T15:00:12;6.65;46.42
66722;SHT31;53633;49.932;10.884;2023-04-03T15:02:39;6.64;44.57
66722;SHT31;53633;49.932;10.884;2023-04-03T15:05:09;6.58;46.31
66722;SHT31;53633;49.932;10.884;2023-04-03T15:07:37;6.30;44.50
66722;SHT31;53633;49.932;10.884;2023-04-03T15:10:15;6.72;45.42
66722;SHT31;53633;49.932;10.884;2023-04-03T15:12:43;6.69;46.15
66722;SHT31;53633;49.932;10.884;2023-04-03T15:15:12;6.95;45.98
66722;SHT31;53633;49.932;10.884;2023-04-03T15:17:39;6.89;45.72
66722;SHT31;53633;49.932;10.884;2023-04-03T15:20:12;6.75;46.04
66722;SHT31;53633;49.932;10.884;2023-04-03T15:22:39;6.71;46.06
66722;SHT31;53633;49.932;10.884;2023-04-03T15:25:06;6.75;45.97
66722;SHT31;53633;49.932;10.884;2023-04-03T15:27:33;6.72;45.70
66722;SHT31;53633;49.932;10.884;2023-04-03T15:30:00;6.65;45.36
66722;SHT31;53633;49.932;10.884;2023-04-03T15:32:28;6.48;45.21
66722;SHT31;53633;49.932;10.884;2023-04-03T15:34:57;6.65;45.98
66722;SHT31;53633;49.932;10.884;2023-04-03T15:37:24;6.59;46.60
66722;SHT31;53633;49.932;10.884;2023-04-03T15:39:51;6.65;45.51
66722;SHT31;53633;49.932;10.884;2023-04-03T15:42:18;6.55;45.00
66722;SHT31;53633;49.932;10.884;2023-04-03T15:44:44;6.64;46.60
66722;SHT31;53633;49.932;10.884;2023-04-03T15:47:11;6.55;47.10
66722;SHT31;53633;49.932;10.884;2023-04-03T15:49:40;6.23;47.45
66722;SHT31;53633;49.932;10.884;2023-04-03T15:52:07;6.38;46.80
66722;SHT31;53633;49.932;10.884;2023-04-03T15:54:34;6.40;46.67